| time (UTC) | temp C | wind direction | speed KPH | gust KPH | rain 1hr cm | rain 24hr cm | rain mn cm | humidity % | barometer mb |
| 20260831131601 | 18 | 0 | 1.6 | 6.4 | 0.00 | 1.04 | 1.04 | 99 | 1010.2 |
| 20260831130059 | 18 | 0 | 0.0 | 8.0 | 0.00 | 1.04 | 1.04 | 99 | 1009.8 |
| 20260831124608 | 18 | 182 | 0.0 | 3.2 | 0.00 | 1.04 | 1.04 | 99 | 1009.9 |
| 20260831123105 | 18 | 0 | 0.0 | 1.6 | 0.00 | 1.04 | 1.04 | 99 | 1010.0 |
| 20260831121632 | 18 | 0 | 0.0 | 4.8 | 0.00 | 1.04 | 1.04 | 99 | 1009.9 |
| 20260831120059 | 17 | 0 | 0.0 | 0.0 | 0.00 | 1.04 | 1.04 | 99 | 1009.9 |
| 20260831114605 | 17 | 0 | 0.0 | 0.0 | 0.00 | 1.04 | 1.04 | 99 | 1010.0 |
| 20260831113109 | 17 | 0 | 0.0 | 0.0 | 0.00 | 1.04 | 1.04 | 99 | 1009.9 |
| 20260831111557 | 17 | 0 | 0.0 | 6.4 | 0.05 | 1.04 | 1.04 | 98 | 1009.7 |
| 20260831110107 | 17 | 140 | 0.0 | 6.4 | 0.13 | 1.04 | 1.04 | 98 | 1009.8 |
| 20260831104605 | 17 | 194 | 3.2 | 14.5 | 0.23 | 1.04 | 1.04 | 98 | 1009.7 |
| 20260831103111 | 17 | 140 | 3.2 | 12.9 | 0.43 | 1.04 | 1.04 | 98 | 1009.8 |
| 20260831101610 | 17 | 89 | 3.2 | 9.7 | 0.43 | 0.99 | 0.99 | 98 | 1009.9 |
| 20260831100110 | 17 | 82 | 0.0 | 6.4 | 0.48 | 0.91 | 0.91 | 98 | 1010.3 |
| 20260831094608 | 17 | 0 | 1.6 | 8.0 | 0.38 | 0.81 | 0.81 | 98 | 1010.4 |
| 20260831093152 | 17 | 189 | 3.2 | 11.3 | 0.18 | 0.61 | 0.61 | 98 | 1010.1 |
| 20260831091606 | 17 | 121 | 3.2 | 11.3 | 0.10 | 0.53 | 0.53 | 98 | 1009.8 |
| 20260831090108 | 17 | 184 | 1.6 | 9.7 | 0.00 | 0.43 | 0.43 | 98 | 1010.7 |
| 20260831084652 | 17 | 104 | 3.2 | 12.9 | 0.00 | 0.43 | 0.43 | 98 | 1009.9 |
| 20260831083107 | 17 | 76 | 3.2 | 14.5 | 0.00 | 0.43 | 0.43 | 98 | 1009.5 |
| 20260831081558 | 17 | 88 | 4.8 | 11.3 | 0.00 | 0.43 | 0.43 | 98 | 1009.6 |
| 20260831080117 | 17 | 109 | 3.2 | 9.7 | 0.00 | 0.43 | 0.43 | 98 | 1009.7 |
| 20260831074553 | 17 | 127 | 3.2 | 6.4 | 0.00 | 0.43 | 0.43 | 98 | 1010.0 |
| 20260831073057 | 17 | 0 | 1.6 | 6.4 | 0.05 | 0.43 | 0.43 | 98 | 1010.2 |
| 20260831071612 | 17 | 0 | 1.6 | 8.0 | 0.08 | 0.43 | 0.43 | 98 | 1010.3 |
| 20260831070056 | 17 | 101 | 1.6 | 9.7 | 0.18 | 0.43 | 0.43 | 98 | 1010.2 |
| 20260831064603 | 17 | 134 | 4.8 | 11.3 | 0.18 | 0.43 | 0.43 | 97 | 1010.4 |
| 20260831063108 | 17 | 106 | 1.6 | 9.7 | 0.23 | 0.38 | 0.38 | 97 | 1010.6 |
| 20260831061605 | 17 | 95 | 1.6 | 4.8 | 0.36 | 0.36 | 0.36 | 97 | 1011.5 |
| 20260831060122 | 17 | 0 | 0.0 | 3.2 | 0.25 | 0.25 | 0.25 | 97 | 1011.8 |
| 20260831054604 | 17 | 145 | 1.6 | 12.9 | 0.25 | 0.25 | 0.25 | 96 | 1011.1 |
| 20260831053102 | 17 | 92 | 1.6 | 11.3 | 0.15 | 0.15 | 0.15 | 95 | 1011.9 |
| 20260831051602 | 17 | 128 | 3.2 | 11.3 | 0.00 | 0.00 | 0.00 | 94 | 1012.4 |
| 20260831050118 | 17 | 117 | 4.8 | 16.1 | 0.00 | 0.00 | 0.00 | 94 | 1012.4 |
| 20260831044610 | 17 | 84 | 6.4 | 20.9 | 0.00 | 0.00 | 0.00 | 94 | 1012.4 |
| 20260831043105 | 17 | 109 | 6.4 | 16.1 | 0.00 | 0.00 | 0.00 | 94 | 1012.8 |
| 20260831041558 | 17 | 114 | 1.6 | 16.1 | 0.00 | 0.00 | 0.00 | 93 | 1013.0 |
| 20260831040054 | 17 | 0 | 4.8 | 17.7 | 0.00 | 0.00 | 0.00 | 93 | 1013.3 |
| 20260831034601 | 17 | 99 | 4.8 | 14.5 | 0.00 | 0.00 | 0.00 | 92 | 1013.7 |
| 20260831033104 | 18 | 109 | 3.2 | 19.3 | 0.00 | 0.00 | 0.00 | 91 | 1013.4 |
| 20260831031557 | 18 | 120 | 4.8 | 12.9 | 0.00 | 0.00 | 0.00 | 91 | 1013.6 |
| 20260831030056 | 18 | 100 | 4.8 | 14.5 | 0.00 | 0.00 | 0.00 | 91 | 1013.8 |
| 20260831024559 | 18 | 0 | 4.8 | 12.9 | 0.00 | 0.00 | 0.00 | 91 | 1013.9 |
| 20260831023105 | 18 | 0 | 1.6 | 11.3 | 0.00 | 0.00 | 0.00 | 91 | 1013.9 |
| 20260831021555 | 18 | 128 | 6.4 | 19.3 | 0.00 | 0.00 | 0.00 | 91 | 1013.7 |
| 20260831020056 | 18 | 117 | 1.6 | 12.9 | 0.00 | 0.00 | 0.00 | 91 | 1013.5 |
| 20260831014552 | 17 | 107 | 3.2 | 17.7 | 0.00 | 0.00 | 0.00 | 91 | 1013.0 |
| 20260831013058 | 18 | 92 | 4.8 | 16.1 | 0.00 | 0.00 | 0.00 | 91 | 1012.5 |
| 20260831011602 | 18 | 128 | 6.4 | 16.1 | 0.00 | 0.00 | 0.00 | 90 | 1012.2 |
| 20260831010105 | 18 | 111 | 4.8 | 16.1 | 0.00 | 0.00 | 0.00 | 89 | 1012.8 |
| 20260831004554 | 18 | 0 | 3.2 | 17.7 | 0.00 | 0.00 | 0.00 | 89 | 1013.0 |
| 20260831003101 | 18 | 119 | 3.2 | 17.7 | 0.00 | 0.00 | 0.00 | 89 | 1013.0 |
| 20260831001608 | 18 | 90 | 6.4 | 20.9 | 0.00 | 0.00 | 0.00 | 88 | 1013.6 |
| 20260831000056 | 18 | 165 | 8.0 | 19.3 | 0.00 | 0.00 | 0.00 | 88 | 1013.9 |
| 20260830234606 | 18 | 62 | 4.8 | 17.7 | 0.00 | 0.00 | 0.00 | 87 | 1014.1 |
| 20260830233106 | 18 | 78 | 4.8 | 16.1 | 0.00 | 0.00 | 0.00 | 86 | 1014.0 |
| 20260830231556 | 19 | 111 | 8.0 | 19.3 | 0.00 | 0.00 | 0.00 | 85 | 1014.3 |
| 20260830230128 | 19 | 74 | 6.4 | 16.1 | 0.00 | 0.00 | 0.00 | 85 | 1014.2 |
| 20260830224606 | 19 | 101 | 8.0 | 20.9 | 0.00 | 0.00 | 0.00 | 84 | 1014.1 |
| 20260830223055 | 20 | 113 | 8.0 | 19.3 | 0.00 | 0.00 | 0.00 | 83 | 1014.2 |
| 20260830221553 | 20 | 123 | 6.4 | 14.5 | 0.00 | 0.00 | 0.00 | 81 | 1014.1 |
| 20260830220107 | 20 | 142 | 6.4 | 16.1 | 0.00 | 0.00 | 0.00 | 81 | 1014.5 |
| 20260830214556 | 20 | 123 | 9.7 | 20.9 | 0.00 | 0.00 | 0.00 | 80 | 1014.4 |
| 20260830213100 | 21 | 62 | 6.4 | 17.7 | 0.00 | 0.00 | 0.00 | 79 | 1014.5 |
| 20260830211605 | 21 | 200 | 6.4 | 22.5 | 0.00 | 0.00 | 0.00 | 80 | 1014.7 |
| 20260830210109 | 21 | 198 | 3.2 | 20.9 | 0.00 | 0.00 | 0.00 | 81 | 1014.7 |
| 20260830204557 | 20 | 94 | 9.7 | 19.3 | 0.00 | 0.00 | 0.00 | 80 | 1014.7 |
| 20260830203100 | 21 | 152 | 9.7 | 24.1 | 0.00 | 0.00 | 0.00 | 80 | 1014.7 |
| 20260830201556 | 21 | 162 | 6.4 | 20.9 | 0.00 | 0.00 | 0.00 | 80 | 1014.8 |
| 20260830200106 | 20 | 89 | 6.4 | 20.9 | 0.00 | 0.00 | 0.00 | 81 | 1014.6 |
| 20260830194612 | 21 | 111 | 4.8 | 16.1 | 0.00 | 0.00 | 0.00 | 82 | 1014.9 |
| 20260830193100 | 20 | 186 | 8.0 | 22.5 | 0.00 | 0.00 | 0.00 | 81 | 1014.5 |
| 20260830191601 | 20 | 190 | 9.7 | 20.9 | 0.00 | 0.00 | 0.00 | 81 | 1014.7 |
| 20260830190057 | 21 | 169 | 8.0 | 19.3 | 0.00 | 0.00 | 0.00 | 81 | 1014.6 |
| 20260830184559 | 20 | 72 | 6.4 | 17.7 | 0.00 | 0.00 | 0.00 | 82 | 1014.7 |
| 20260830183057 | 20 | 108 | 8.0 | 17.7 | 0.00 | 0.00 | 0.00 | 83 | 1014.5 |
| 20260830181555 | 20 | 73 | 4.8 | 14.5 | 0.00 | 0.00 | 0.00 | 84 | 1014.5 |
| 20260830180108 | 19 | 53 | 3.2 | 17.7 | 0.00 | 0.00 | 0.00 | 86 | 1014.3 |
| 20260830174607 | 19 | 104 | 8.0 | 19.3 | 0.00 | 0.00 | 0.00 | 87 | 1014.6 |
| 20260830173107 | 19 | 15 | 8.0 | 19.3 | 0.00 | 0.00 | 0.00 | 86 | 1014.9 |
| 20260830171606 | 19 | 148 | 8.0 | 16.1 | 0.00 | 0.00 | 0.00 | 86 | 1015.0 |
| 20260830170056 | 19 | 140 | 6.4 | 17.7 | 0.00 | 0.00 | 0.00 | 86 | 1015.1 |
| 20260830164604 | 19 | 82 | 8.0 | 17.7 | 0.00 | 0.00 | 0.00 | 86 | 1015.1 |
| 20260830163100 | 20 | 140 | 4.8 | 14.5 | 0.00 | 0.00 | 0.00 | 86 | 1015.1 |
| 20260830161554 | 19 | 72 | 4.8 | 11.3 | 0.00 | 0.00 | 0.00 | 88 | 1015.3 |
| 20260830160115 | 19 | 188 | 0.0 | 14.5 | 0.00 | 0.00 | 0.00 | 88 | 1015.2 |
| 20260830154557 | 18 | 133 | 1.6 | 12.9 | 0.00 | 0.00 | 0.00 | 89 | 1015.2 |
| 20260830153057 | 18 | 162 | 4.8 | 14.5 | 0.00 | 0.00 | 0.00 | 89 | 1014.9 |
| 20260830151553 | 18 | 99 | 3.2 | 11.3 | 0.00 | 0.00 | 0.00 | 90 | 1014.8 |
| 20260830150119 | 18 | 89 | 3.2 | 12.9 | 0.00 | 0.00 | 0.00 | 91 | 1014.4 |
| 20260830144606 | 17 | 88 | 1.6 | 14.5 | 0.00 | 0.00 | 0.00 | 91 | 1014.4 |
| 20260830143057 | 17 | 0 | 0.0 | 9.7 | 0.00 | 0.00 | 0.00 | 91 | 1014.5 |
| 20260830141554 | 17 | 82 | 1.6 | 16.1 | 0.00 | 0.00 | 0.00 | 92 | 1014.5 |
| 20260830140105 | 17 | 73 | 0.0 | 6.4 | 0.00 | 0.00 | 0.00 | 93 | 1014.9 |
| 20260830134605 | 17 | 78 | 1.6 | 8.0 | 0.00 | 0.00 | 0.00 | 94 | 1015.1 |
| 20260830133058 | 16 | 140 | 3.2 | 12.9 | 0.00 | 0.00 | 0.00 | 94 | 1015.0 |